sensor_id;sensor_type;location;lat;lon;timestamp;pressure;altitude;pressure_sealevel;temperature;humidity
69593;BME280;56796;50.122;14.468;2023-08-12T00:03:57;984.3;;;20.14;70.07
69593;BME280;56796;50.122;14.468;2023-08-12T00:23:23;984.28;;;19.7;71.59
69593;BME280;56796;50.122;14.468;2023-08-12T00:42:53;984.19;;;19.35;73.79
69593;BME280;56796;50.122;14.468;2023-08-12T01:02:12;984.09;;;19.17;75.61
69593;BME280;56796;50.122;14.468;2023-08-12T01:21:40;983.94;;;18.99;76.58
69593;BME280;56796;50.122;14.468;2023-08-12T01:41:05;983.93;;;18.74;77.95
69593;BME280;56796;50.122;14.468;2023-08-12T02:00:31;984.05;;;18.29;79.84
69593;BME280;56796;50.122;14.468;2023-08-12T02:19:57;983.94;;;18.2;80.82
69593;BME280;56796;50.122;14.468;2023-08-12T02:39:23;983.82;;;17.94;82.06
69593;BME280;56796;50.122;14.468;2023-08-12T02:58:49;983.77;;;17.79;82.61
69593;BME280;56796;50.122;14.468;2023-08-12T03:18:16;983.8;;;17.65;83.35
69593;BME280;56796;50.122;14.468;2023-08-12T03:37:43;983.8;;;17.54;83.54
69593;BME280;56796;50.122;14.468;2023-08-12T03:57:09;983.71;;;17.52;83.67
69593;BME280;56796;50.122;14.468;2023-08-12T04:16:36;983.83;;;17.42;84.3
69593;BME280;56796;50.122;14.468;2023-08-12T04:36:03;983.81;;;17.37;84.61
69593;BME280;56796;50.122;14.468;2023-08-12T04:55:31;983.69;;;17.42;85.15
69593;BME280;56796;50.122;14.468;2023-08-12T05:14:59;983.74;;;18.21;82.24
69593;BME280;56796;50.122;14.468;2023-08-12T05:34:27;983.73;;;18.59;81
69593;BME280;56796;50.122;14.468;2023-08-12T05:53:56;983.66;;;19.23;79.16
69593;BME280;56796;50.122;14.468;2023-08-12T06:13:25;983.63;;;19.99;76.11
69593;BME280;56796;50.122;14.468;2023-08-12T06:32:55;983.6;;;20.23;75.65
69593;BME280;56796;50.122;14.468;2023-08-12T06:52:28;983.47;;;22.5;68.99
69593;BME280;56796;50.122;14.468;2023-08-12T07:12:03;983.49;;;24.23;63.85
69593;BME280;56796;50.122;14.468;2023-08-12T07:31:36;983.35;;;25.46;59.79
69593;BME280;56796;50.122;14.468;2023-08-12T07:51:10;983.29;;;26.87;55.93
69593;BME280;56796;50.122;14.468;2023-08-12T08:10:43;983.2;;;27.34;53.52
69593;BME280;56796;50.122;14.468;2023-08-12T08:30:13;983.02;;;28.27;52.66
69593;BME280;56796;50.122;14.468;2023-08-12T08:49:44;982.91;;;29.83;49.53
69593;BME280;56796;50.122;14.468;2023-08-12T09:09:17;982.76;;;30.9;44.17
69593;BME280;56796;50.122;14.468;2023-08-12T09:28:48;982.64;;;31.35;43.18
69593;BME280;56796;50.122;14.468;2023-08-12T09:48:17;982.4;;;32.25;40.29
69593;BME280;56796;50.122;14.468;2023-08-12T10:07:49;982.18;;;32.36;38.41
69593;BME280;56796;50.122;14.468;2023-08-12T10:27:11;982.09;;;32.75;38.42
69593;BME280;56796;50.122;14.468;2023-08-12T10:46:41;981.91;;;32.93;36.31
69593;BME280;56796;50.122;14.468;2023-08-12T11:06:12;981.72;;;33.68;34.03
69593;BME280;56796;50.122;14.468;2023-08-12T11:25:30;981.51;;;33.68;32.7
69593;BME280;56796;50.122;14.468;2023-08-12T11:44:59;981.33;;;33.87;30.54
69593;BME280;56796;50.122;14.468;2023-08-12T12:04:27;981.1;;;33.33;31.39
69593;BME280;56796;50.122;14.468;2023-08-12T12:23:57;980.95;;;35.32;29.64
69593;BME280;56796;50.122;14.468;2023-08-12T12:43:25;980.7;;;34.25;29.9
69593;BME280;56796;50.122;14.468;2023-08-12T13:02:48;980.74;;;33.12;31.09
69593;BME280;56796;50.122;14.468;2023-08-12T13:22:15;980.47;;;33.29;31
69593;BME280;56796;50.122;14.468;2023-08-12T13:41:42;980.1;;;33.77;30.86
69593;BME280;56796;50.122;14.468;2023-08-12T14:01:13;980.05;;;34.06;30.11
69593;BME280;56796;50.122;14.468;2023-08-12T14:20:37;980.02;;;32.84;31.3
69593;BME280;56796;50.122;14.468;2023-08-12T14:40:02;979.84;;;33.28;31.87
69593;BME280;56796;50.122;14.468;2023-08-12T14:59:30;979.64;;;33.93;30.99
69593;BME280;56796;50.122;14.468;2023-08-12T15:18:57;979.6;;;33.72;30.13
69593;BME280;56796;50.122;14.468;2023-08-12T15:38:22;979.32;;;32.99;31.18
69593;BME280;56796;50.122;14.468;2023-08-12T15:57:48;979.09;;;32.65;32.57
69593;BME280;56796;50.122;14.468;2023-08-12T16:17:14;979.26;;;32.02;33.11
69593;BME280;56796;50.122;14.468;2023-08-12T16:36:39;979.38;;;31.31;34.65
69593;BME280;56796;50.122;14.468;2023-08-12T16:56:04;979.31;;;30.93;35.76
69593;BME280;56796;50.122;14.468;2023-08-12T17:15:30;979.19;;;30.13;37.01
69593;BME280;56796;50.122;14.468;2023-08-12T17:34:54;979.4;;;29.79;38.23
69593;BME280;56796;50.122;14.468;2023-08-12T17:54:22;979.46;;;29.6;38.81
69593;BME280;56796;50.122;14.468;2023-08-12T18:13:49;979.53;;;29.27;39.97
69593;BME280;56796;50.122;14.468;2023-08-12T18:33:14;979.92;;;27.16;50.33
69593;BME280;56796;50.122;14.468;2023-08-12T18:52:37;980.17;;;26.64;53.06
69593;BME280;56796;50.122;14.468;2023-08-12T19:12:04;980.49;;;26.25;55.57
69593;BME280;56796;50.122;14.468;2023-08-12T19:31:30;980.46;;;25.73;57.43
69593;BME280;56796;50.122;14.468;2023-08-12T19:50:56;980.49;;;25.28;59.79
69593;BME280;56796;50.122;14.468;2023-08-12T20:10:22;980.18;;;24.6;62.68
69593;BME280;56796;50.122;14.468;2023-08-12T20:29:48;980.25;;;24.31;64.41
69593;BME280;56796;50.122;14.468;2023-08-12T20:49:14;980.38;;;24.06;65.41
69593;BME280;56796;50.122;14.468;2023-08-12T21:08:40;980.47;;;23.68;67.03
69593;BME280;56796;50.122;14.468;2023-08-12T21:28:06;980.79;;;23.44;68.59
69593;BME280;56796;50.122;14.468;2023-08-12T21:47:32;981.09;;;22.81;71.34
69593;BME280;56796;50.122;14.468;2023-08-12T22:06:58;981.17;;;22.38;74.15
69593;BME280;56796;50.122;14.468;2023-08-12T22:26:24;981.24;;;22.27;75.5
69593;BME280;56796;50.122;14.468;2023-08-12T22:45:52;981.33;;;22.38;75.98
69593;BME280;56796;50.122;14.468;2023-08-12T23:05:18;981.3;;;21.97;78.57
69593;BME280;56796;50.122;14.468;2023-08-12T23:24:45;981.3;;;21.76;80.24
69593;BME280;56796;50.122;14.468;2023-08-12T23:44:12;981.3;;;21.64;81.18
